createdAt,value
2018-07-25T00:01:12.260Z,17.33
2018-07-25T00:05:16.100Z,16.63
2018-07-25T00:09:20.008Z,16.97
2018-07-25T00:13:25.307Z,14.43
2018-07-25T00:17:29.179Z,15.53
2018-07-25T00:21:33.304Z,15.90
2018-07-25T00:25:37.375Z,16.87
2018-07-25T00:29:41.324Z,17.90
2018-07-25T00:33:45.207Z,16.70
2018-07-25T00:37:49.055Z,20.13
2018-07-25T00:41:52.955Z,19.57
2018-07-25T00:45:56.903Z,20.03
2018-07-25T00:50:00.815Z,17.90
2018-07-25T00:54:04.652Z,17.30
2018-07-25T00:58:08.679Z,18.57
2018-07-25T01:02:12.554Z,18.87
2018-07-25T01:06:16.543Z,18.00
2018-07-25T01:10:20.391Z,17.57
2018-07-25T01:14:24.279Z,17.73
2018-07-25T01:18:28.124Z,17.50
2018-07-25T01:22:32.104Z,19.30
2018-07-25T01:26:35.951Z,17.53
2018-07-25T01:30:39.823Z,17.60
2018-07-25T01:34:43.663Z,14.60
2018-07-25T01:38:47.536Z,14.67
2018-07-25T01:42:51.389Z,17.37
2018-07-25T01:46:55.271Z,17.53
2018-07-25T01:50:59.150Z,21.97
2018-07-25T01:55:03.015Z,20.43
2018-07-25T01:59:07.097Z,23.57
2018-07-25T02:03:10.973Z,24.83
2018-07-25T02:07:14.827Z,25.60
2018-07-25T02:11:18.807Z,27.57
2018-07-25T02:15:22.643Z,24.63
2018-07-25T02:19:26.552Z,25.27
2018-07-25T02:23:30.371Z,24.07
2018-07-25T02:27:34.316Z,28.30
2018-07-25T02:31:38.257Z,25.50
2018-07-25T02:35:42.160Z,25.03
2018-07-25T02:39:45.999Z,22.70
2018-07-25T02:43:50.153Z,27.50
2018-07-25T02:47:53.747Z,26.10
2018-07-25T02:51:57.507Z,25.17
2018-07-25T02:56:01.368Z,24.80
2018-07-25T03:00:05.752Z,30.43
2018-07-25T03:04:09.595Z,27.23
2018-07-25T03:08:13.500Z,29.13
2018-07-25T03:12:17.339Z,27.67
2018-07-25T03:16:21.324Z,29.50
2018-07-25T03:20:25.168Z,30.77
2018-07-25T03:24:28.919Z,29.73
2018-07-25T03:28:32.695Z,32.67
2018-07-25T03:32:36.674Z,33.73
2018-07-25T03:36:40.572Z,30.73
2018-07-25T03:40:44.820Z,32.63
2018-07-25T03:44:48.657Z,31.83
2018-07-25T03:48:52.651Z,37.10
2018-07-25T03:52:56.597Z,40.07
2018-07-25T03:57:00.551Z,41.50
2018-07-25T04:01:04.615Z,44.20
2018-07-25T04:05:08.600Z,42.97
2018-07-25T04:09:12.451Z,42.73
2018-07-25T04:13:17.112Z,46.20
2018-07-25T04:21:31.171Z,44.83
2018-07-25T04:25:35.032Z,47.27
2018-07-25T04:29:38.925Z,46.57
2018-07-25T04:33:42.783Z,45.37
2018-07-25T04:37:46.667Z,44.17
2018-07-25T04:41:50.511Z,48.00
2018-07-25T04:45:54.406Z,47.17
2018-07-25T04:49:58.243Z,46.87
2018-07-25T04:54:02.127Z,46.23
2018-07-25T04:58:05.979Z,48.93
2018-07-25T05:02:10.311Z,52.33
2018-07-25T05:06:14.164Z,46.17
2018-07-25T05:10:18.049Z,47.63
2018-07-25T05:14:21.895Z,51.80
2018-07-25T05:18:25.779Z,43.40
2018-07-25T05:22:29.671Z,43.63
2018-07-25T05:26:33.580Z,45.67
2018-07-25T05:30:37.459Z,43.80
2018-07-25T05:34:41.347Z,42.57
2018-07-25T05:38:45.198Z,46.30
2018-07-25T05:42:49.088Z,43.73
2018-07-25T05:46:52.940Z,44.90
2018-07-25T05:50:57.056Z,38.87
2018-07-25T05:55:01.018Z,39.83
2018-07-25T05:59:04.892Z,42.50
2018-07-25T06:03:09.039Z,42.33
2018-07-25T06:07:12.887Z,40.37
2018-07-25T06:11:16.727Z,37.07
2018-07-25T06:15:20.712Z,34.77
2018-07-25T06:19:24.559Z,37.37
2018-07-25T06:23:28.471Z,38.13
2018-07-25T06:27:32.315Z,36.60
2018-07-25T06:31:36.228Z,34.70
2018-07-25T06:35:40.064Z,34.60
2018-07-25T06:39:44.029Z,34.80
2018-07-25T06:43:47.724Z,34.80
2018-07-25T06:47:51.431Z,35.10
2018-07-25T06:51:55.281Z,29.53
2018-07-25T06:55:59.153Z,25.50
2018-07-25T07:00:02.807Z,24.10
2018-07-25T07:04:06.749Z,21.00
2018-07-25T07:08:10.596Z,20.30
2018-07-25T07:12:14.300Z,16.53
2018-07-25T07:16:17.996Z,15.77
2018-07-25T07:20:21.739Z,14.07
2018-07-25T07:24:25.456Z,13.03
2018-07-25T07:28:29.356Z,12.67
2018-07-25T07:32:33.199Z,11.00
2018-07-25T07:36:37.007Z,11.00
2018-07-25T07:40:40.730Z,10.90
2018-07-25T07:44:44.640Z,9.40
2018-07-25T07:48:48.471Z,8.37
2018-07-25T07:52:52.361Z,9.90
2018-07-25T07:56:56.219Z,8.43
2018-07-25T08:01:00.156Z,7.53
2018-07-25T08:05:04.402Z,7.93
2018-07-25T08:09:10.692Z,7.27
2018-07-25T08:13:14.536Z,7.50
2018-07-25T08:17:18.419Z,6.63
2018-07-25T08:21:22.260Z,12.60
2018-07-25T08:25:26.157Z,9.33
2018-07-25T08:29:29.987Z,8.33
2018-07-25T08:33:33.911Z,7.50
2018-07-25T08:37:37.402Z,9.20
2018-07-25T08:41:41.284Z,21.33
2018-07-25T08:45:45.104Z,5.63
2018-07-25T08:49:48.986Z,6.40
2018-07-25T08:53:52.639Z,8.40
2018-07-25T08:57:56.243Z,5.37
2018-07-25T09:01:59.950Z,5.80
2018-07-25T09:06:04.088Z,6.80
2018-07-25T09:10:07.931Z,6.47
2018-07-25T09:14:11.611Z,5.30
2018-07-25T09:18:15.131Z,10.00
2018-07-25T09:22:18.904Z,6.40
2018-07-25T09:26:22.535Z,6.93
2018-07-25T09:30:26.095Z,6.37
2018-07-25T09:34:29.847Z,10.43
2018-07-25T09:38:33.595Z,6.27
2018-07-25T09:42:37.319Z,7.10
2018-07-25T09:46:41.090Z,6.00
2018-07-25T09:50:44.500Z,8.50
2018-07-25T09:54:48.276Z,6.40
2018-07-25T09:58:52.123Z,8.87
2018-07-25T10:02:55.768Z,6.57
2018-07-25T10:06:59.709Z,6.70
2018-07-25T10:11:03.401Z,5.90
2018-07-25T10:15:06.983Z,6.60
2018-07-25T10:19:10.667Z,6.00
2018-07-25T10:23:14.299Z,6.70
2018-07-25T10:27:18.050Z,7.53
2018-07-25T10:31:21.695Z,6.80
2018-07-25T10:35:25.588Z,7.90
2018-07-25T10:39:29.224Z,6.37
2018-07-25T10:43:32.987Z,6.53
2018-07-25T10:47:36.839Z,7.20
2018-07-25T10:51:40.615Z,7.53
2018-07-25T10:55:44.344Z,12.27
2018-07-25T10:59:48.013Z,6.13
2018-07-25T11:03:51.592Z,5.70
2018-07-25T11:07:55.488Z,7.10
2018-07-25T11:11:59.319Z,6.60
2018-07-25T11:16:03.208Z,7.40
2018-07-25T11:20:06.991Z,6.10
2018-07-25T11:24:10.761Z,6.43
2018-07-25T11:28:14.603Z,6.70
2018-07-25T11:32:18.496Z,6.17
2018-07-25T11:36:22.131Z,6.17
2018-07-25T11:40:25.684Z,6.13
2018-07-25T11:44:29.191Z,5.53
2018-07-25T11:48:33.033Z,5.33
2018-07-25T11:52:36.656Z,6.60
2018-07-25T11:56:40.213Z,5.70
2018-07-25T12:00:43.927Z,5.30
2018-07-25T12:04:47.599Z,4.93
2018-07-25T12:08:51.271Z,6.33
2018-07-25T12:12:54.820Z,5.50
2018-07-25T12:16:58.294Z,5.93
2018-07-25T12:21:02.068Z,5.50
2018-07-25T12:25:06.010Z,5.90
2018-07-25T12:29:09.539Z,6.27
2018-07-25T12:33:13.264Z,5.97
2018-07-25T12:37:17.160Z,5.70
2018-07-25T12:41:20.996Z,5.00
2018-07-25T12:45:24.660Z,8.50
2018-07-25T12:49:28.387Z,5.30
2018-07-25T12:53:32.303Z,6.90
2018-07-25T12:57:36.248Z,5.67
2018-07-25T13:01:39.896Z,5.60
2018-07-25T13:05:43.402Z,6.17
2018-07-25T13:09:47.059Z,5.70
2018-07-25T13:13:50.779Z,4.60
2018-07-25T13:17:54.744Z,5.60
2018-07-25T13:21:58.375Z,6.07
2018-07-25T13:26:01.987Z,4.73
2018-07-25T13:30:06.052Z,5.47
2018-07-25T13:34:09.924Z,4.80
2018-07-25T13:38:13.553Z,4.77
2018-07-25T13:42:17.099Z,10.40
2018-07-25T13:46:21.628Z,4.67
2018-07-25T13:50:25.340Z,5.37
2018-07-25T13:54:28.971Z,4.63
2018-07-25T13:58:32.713Z,4.23
2018-07-25T14:02:36.561Z,4.57
2018-07-25T14:06:40.223Z,5.10
2018-07-25T14:10:44.100Z,5.10
2018-07-25T14:14:47.853Z,4.70
2018-07-25T14:18:51.764Z,5.47
2018-07-25T14:22:55.432Z,4.40
2018-07-25T14:26:58.988Z,4.97
2018-07-25T14:31:02.883Z,4.40
2018-07-25T14:35:06.506Z,5.03
2018-07-25T14:39:11.387Z,4.47
2018-07-25T14:43:15.037Z,17.60
2018-07-25T14:47:18.889Z,4.47
2018-07-25T14:51:22.564Z,5.33
2018-07-25T14:55:26.293Z,4.97
2018-07-25T14:59:30.130Z,4.77
2018-07-25T15:03:34.028Z,5.03
2018-07-25T15:07:37.667Z,4.70
2018-07-25T15:11:41.391Z,4.23
2018-07-25T15:15:45.121Z,6.63
2018-07-25T15:19:48.995Z,6.10
2018-07-25T15:23:54.855Z,4.43
2018-07-25T15:27:58.732Z,4.27
2018-07-25T15:32:02.571Z,4.63
2018-07-25T15:36:06.253Z,3.93
2018-07-25T15:40:09.957Z,4.43
2018-07-25T15:44:14.003Z,6.97
2018-07-25T15:48:17.862Z,3.70
2018-07-25T15:52:21.515Z,4.43
2018-07-25T15:56:25.017Z,5.60
2018-07-25T16:00:28.916Z,4.90
2018-07-25T16:04:32.548Z,6.23
2018-07-25T16:08:36.279Z,4.07
2018-07-25T16:12:40.027Z,4.27
2018-07-25T16:16:43.583Z,4.60
2018-07-25T16:20:47.727Z,4.30
2018-07-25T16:24:51.640Z,3.97
2018-07-25T16:28:55.483Z,4.43
2018-07-25T16:32:59.159Z,4.83
2018-07-25T16:37:02.879Z,3.97
2018-07-25T16:41:06.844Z,4.07
2018-07-25T16:45:10.455Z,4.40
2018-07-25T16:49:14.307Z,4.57
2018-07-25T16:53:17.932Z,4.27
2018-07-25T16:57:21.487Z,7.10
2018-07-25T17:01:25.254Z,5.20
2018-07-25T17:05:29.231Z,5.93
2018-07-25T17:09:32.846Z,3.70
2018-07-25T17:13:36.454Z,4.53
2018-07-25T17:17:40.343Z,4.20
2018-07-25T17:21:44.224Z,4.37
2018-07-25T17:25:47.863Z,4.30
2018-07-25T17:29:51.387Z,3.83
2018-07-25T17:33:54.911Z,4.60
2018-07-25T17:37:58.748Z,5.00
2018-07-25T17:42:02.924Z,3.93
2018-07-25T17:46:06.971Z,4.07
2018-07-25T17:50:11.084Z,4.10
2018-07-25T17:54:14.769Z,4.10
2018-07-25T17:58:18.772Z,3.30
2018-07-25T18:02:22.611Z,4.47
2018-07-25T18:06:26.780Z,3.47
2018-07-25T18:10:30.804Z,3.17
2018-07-25T18:14:35.035Z,3.90
2018-07-25T18:18:38.883Z,4.23
2018-07-25T18:22:42.787Z,4.80
2018-07-25T18:26:46.623Z,3.73
2018-07-25T18:30:50.276Z,4.80
2018-07-25T18:34:53.992Z,4.77
2018-07-25T18:38:57.908Z,3.63
2018-07-25T18:43:01.762Z,4.00
2018-07-25T18:47:05.479Z,4.37
2018-07-25T18:51:08.971Z,4.30
2018-07-25T18:55:12.747Z,3.60
2018-07-25T18:59:16.373Z,3.60
2018-07-25T19:03:20.131Z,4.40
2018-07-25T19:07:23.835Z,4.00
2018-07-25T19:11:27.511Z,4.07
2018-07-25T19:15:32.403Z,4.30
2018-07-25T19:19:36.085Z,4.50
2018-07-25T19:23:39.820Z,5.17
2018-07-25T19:27:43.683Z,4.47
2018-07-25T19:31:47.315Z,4.20
2018-07-25T19:35:51.072Z,4.93
2018-07-25T19:39:54.912Z,4.37
2018-07-25T19:43:58.571Z,4.47
2018-07-25T19:48:02.287Z,5.37
2018-07-25T19:52:06.192Z,4.20
2018-07-25T19:56:10.044Z,4.67
2018-07-25T20:00:16.551Z,6.00
2018-07-25T20:04:17.835Z,4.83
2018-07-25T20:08:21.796Z,5.37
2018-07-25T20:12:25.640Z,5.67
2018-07-25T20:16:29.706Z,5.87
2018-07-25T20:20:33.329Z,5.53
2018-07-25T20:24:37.276Z,6.37
2018-07-25T20:28:40.904Z,6.13
2018-07-25T20:32:44.836Z,5.50
2018-07-25T20:36:48.664Z,6.10
2018-07-25T20:40:52.656Z,6.47
2018-07-25T20:44:56.288Z,6.50
2018-07-25T20:49:00.128Z,6.63
2018-07-25T20:53:03.997Z,10.20
2018-07-25T20:57:08.448Z,8.37
2018-07-25T21:01:12.284Z,7.57
2018-07-25T21:05:16.188Z,8.83
2018-07-25T21:09:20.043Z,10.63
2018-07-25T21:13:23.884Z,9.00
2018-07-25T21:17:27.830Z,13.07
2018-07-25T21:21:31.716Z,11.27
2018-07-25T21:25:35.567Z,11.67
2018-07-25T21:29:39.531Z,12.10
2018-07-25T21:33:43.374Z,11.17
2018-07-25T21:37:47.252Z,15.20
2018-07-25T21:41:51.113Z,13.47
2018-07-25T21:45:55.004Z,11.90
2018-07-25T21:49:58.851Z,11.93
2018-07-25T21:54:02.763Z,14.63
2018-07-25T21:58:06.623Z,14.93
2018-07-25T22:02:10.636Z,12.97
2018-07-25T22:06:15.231Z,14.60
2018-07-25T22:10:19.116Z,14.47
2018-07-25T22:14:22.973Z,14.23
2018-07-25T22:18:26.743Z,12.67
2018-07-25T22:22:30.470Z,14.43
2018-07-25T22:26:34.388Z,14.47
2018-07-25T22:30:38.237Z,15.67
2018-07-25T22:34:42.134Z,13.60
2018-07-25T22:38:45.997Z,15.07
2018-07-25T22:42:49.888Z,14.93
2018-07-25T22:46:53.724Z,17.33
2018-07-25T22:50:57.655Z,15.33
2018-07-25T22:55:01.504Z,15.77
2018-07-25T22:59:05.815Z,17.20
2018-07-25T23:03:09.676Z,21.93
2018-07-25T23:07:13.603Z,16.43
2018-07-25T23:11:17.451Z,17.40
2018-07-25T23:15:22.247Z,18.43
2018-07-25T23:19:26.172Z,18.40
2018-07-25T23:23:30.059Z,17.87
2018-07-25T23:27:33.911Z,17.17
2018-07-25T23:31:37.828Z,20.10
2018-07-25T23:35:41.668Z,20.73
2018-07-25T23:39:45.547Z,19.47
2018-07-25T23:43:49.391Z,19.13
2018-07-25T23:47:53.265Z,18.63
2018-07-25T23:51:57.119Z,19.37
2018-07-25T23:56:01.015Z,18.63
